Terminal Aerodrome Forecast
Issued by NWS

Home | Current Version | Previous Version | Graphics & Text | Print | Product List | Glossary On
Versions: 1 2 3 4 5 6 7 8 9 10 11 12 13 14 15 16 17 18 19 20 21 22 23 24
167
FTUS43 KGLD 102345
TAFMCK
TAF
KMCK 102345Z 1100/1124 13008KT P6SM BKN120
     FM110900 30008KT P6SM SCT200 WS010/32040KT
     FM111300 32010KT P6SM OVC110
     FM111500 34013G23KT P6SM BKN060
     FM112000 31008KT P6SM SCT120=

USA.gov is the U.S. government's official web portal to all federal, state and local government web resources and services.